DLH322 EDDW-EHAM
Flight info
| Callsign | DLH322 |
|---|---|
| Flight time | N/A |
| Altitude | 20000 |
| Route | OKWEL1M OKWEL N125 BLUFA |
| Aircraft | A320/M-SDE3FGHIRWY/LB1 |
Departure
| Time | N/A |
|---|---|
| Airport | Bremen Airport (EDDW) |
Arrival
| Time | 2026-05-07 09:34 |
|---|---|
| Airport | Amsterdam Airport Schiphol (EHAM) |
| Time | Latitude | Longitude | Altitude | Speed | Heading |
|---|---|---|---|---|---|
| 2026-05-07 09:06 | 52.96803 | 7.74882 | 19593 ft | 421 kts | 262° |
| 2026-05-07 09:06 | 52.96383 | 7.70020 | 19713 ft | 431 kts | 262° |
| 2026-05-07 09:06 | 52.95949 | 7.65049 | 19842 ft | 440 kts | 262° |
| 2026-05-07 09:06 | 52.95500 | 7.60001 | 20010 ft | 444 kts | 261° |
| 2026-05-07 09:07 | 52.95047 | 7.54920 | 20053 ft | 446 kts | 262° |
| 2026-05-07 09:07 | 52.94590 | 7.49836 | 20051 ft | 446 kts | 261° |
| 2026-05-07 09:07 | 52.94131 | 7.44754 | 20049 ft | 445 kts | 261° |
| 2026-05-07 09:07 | 52.93679 | 7.39678 | 20052 ft | 445 kts | 262° |
| 2026-05-07 09:08 | 52.93226 | 7.34593 | 20047 ft | 446 kts | 262° |
| 2026-05-07 09:08 | 52.92772 | 7.29507 | 20049 ft | 445 kts | 261° |
| 2026-05-07 09:08 | 52.92312 | 7.24436 | 20048 ft | 445 kts | 261° |
| 2026-05-07 09:08 | 52.91845 | 7.19366 | 20049 ft | 446 kts | 261° |
| 2026-05-07 09:09 | 52.91373 | 7.14282 | 20053 ft | 446 kts | 261° |
| 2026-05-07 09:09 | 52.90903 | 7.09198 | 20056 ft | 446 kts | 261° |
| 2026-05-07 09:09 | 52.90440 | 7.04119 | 20061 ft | 446 kts | 261° |
| 2026-05-07 09:09 | 52.89974 | 6.99040 | 20055 ft | 446 kts | 261° |
| 2026-05-07 09:10 | 52.89501 | 6.93953 | 20054 ft | 446 kts | 261° |
| 2026-05-07 09:10 | 52.89022 | 6.88948 | 20054 ft | 446 kts | 261° |
| 2026-05-07 09:10 | 52.88531 | 6.83867 | 20056 ft | 446 kts | 261° |
| 2026-05-07 09:10 | 52.88041 | 6.78788 | 20052 ft | 447 kts | 261° |
| 2026-05-07 09:11 | 52.87557 | 6.73712 | 20055 ft | 447 kts | 261° |
| 2026-05-07 09:11 | 52.87077 | 6.68628 | 20058 ft | 447 kts | 261° |
| 2026-05-07 09:11 | 52.86594 | 6.63554 | 20060 ft | 447 kts | 261° |
| 2026-05-07 09:11 | 52.86104 | 6.58460 | 20058 ft | 447 kts | 261° |
| 2026-05-07 09:12 | 52.85612 | 6.53381 | 19839 ft | 447 kts | 261° |
| 2026-05-07 09:12 | 52.84920 | 6.48412 | 19553 ft | 444 kts | 250° |
| 2026-05-07 09:12 | 52.83548 | 6.43854 | 19313 ft | 443 kts | 239° |
| 2026-05-07 09:12 | 52.81964 | 6.39482 | 19067 ft | 442 kts | 239° |
| 2026-05-07 09:13 | 52.80373 | 6.35141 | 18735 ft | 440 kts | 239° |
| 2026-05-07 09:13 | 52.78783 | 6.30834 | 18377 ft | 439 kts | 239° |
| 2026-05-07 09:13 | 52.77188 | 6.26535 | 17970 ft | 436 kts | 239° |
| 2026-05-07 09:13 | 52.75606 | 6.22278 | 17567 ft | 433 kts | 239° |
| 2026-05-07 09:14 | 52.74034 | 6.18045 | 17159 ft | 432 kts | 239° |
| 2026-05-07 09:14 | 52.72473 | 6.13837 | 16767 ft | 429 kts | 239° |
| 2026-05-07 09:14 | 52.70921 | 6.09659 | 16375 ft | 426 kts | 239° |
| 2026-05-07 09:14 | 52.69375 | 6.05500 | 15989 ft | 424 kts | 239° |
| 2026-05-07 09:15 | 52.67837 | 6.01365 | 15604 ft | 422 kts | 239° |
| 2026-05-07 09:15 | 52.66308 | 5.97262 | 15228 ft | 419 kts | 239° |
| 2026-05-07 09:15 | 52.64783 | 5.93180 | 14853 ft | 418 kts | 239° |
| 2026-05-07 09:15 | 52.63262 | 5.89116 | 14483 ft | 416 kts | 239° |
| 2026-05-07 09:16 | 52.61769 | 5.85124 | 14120 ft | 414 kts | 239° |
| 2026-05-07 09:16 | 52.60263 | 5.81109 | 13755 ft | 411 kts | 239° |
| 2026-05-07 09:16 | 52.58765 | 5.77121 | 13353 ft | 409 kts | 239° |
| 2026-05-07 09:16 | 52.57273 | 5.73159 | 12952 ft | 406 kts | 239° |
| 2026-05-07 09:17 | 52.55785 | 5.69218 | 12552 ft | 404 kts | 239° |
| 2026-05-07 09:17 | 52.54307 | 5.65310 | 12162 ft | 402 kts | 238° |
| 2026-05-07 09:17 | 52.52831 | 5.61418 | 11768 ft | 397 kts | 238° |
| 2026-05-07 09:17 | 52.51409 | 5.57621 | 11389 ft | 383 kts | 240° |
| 2026-05-07 09:18 | 52.50121 | 5.53873 | 11014 ft | 372 kts | 241° |
| 2026-05-07 09:18 | 52.48860 | 5.50189 | 10643 ft | 369 kts | 241° |
| 2026-05-07 09:18 | 52.47610 | 5.46534 | 10285 ft | 364 kts | 241° |
| 2026-05-07 09:18 | 52.46400 | 5.43001 | 10180 ft | 345 kts | 241° |
| 2026-05-07 09:19 | 52.45259 | 5.39665 | 10119 ft | 327 kts | 241° |
| 2026-05-07 09:19 | 52.44165 | 5.36467 | 10041 ft | 315 kts | 241° |
| 2026-05-07 09:19 | 52.43102 | 5.33362 | 9971 ft | 315 kts | 241° |
| 2026-05-07 09:19 | 52.42121 | 5.30133 | 9770 ft | 316 kts | 252° |
| 2026-05-07 09:20 | 52.41846 | 5.26582 | 9449 ft | 319 kts | 271° |
| 2026-05-07 09:20 | 52.41927 | 5.22850 | 9045 ft | 333 kts | 273° |
| 2026-05-07 09:20 | 52.42038 | 5.19050 | 8647 ft | 334 kts | 273° |
| 2026-05-07 09:20 | 52.42147 | 5.15307 | 8257 ft | 332 kts | 273° |
| 2026-05-07 09:21 | 52.42252 | 5.11485 | 7883 ft | 330 kts | 273° |
| 2026-05-07 09:21 | 52.42350 | 5.07790 | 7509 ft | 328 kts | 273° |
| 2026-05-07 09:21 | 52.42440 | 5.04056 | 7135 ft | 326 kts | 273° |
| 2026-05-07 09:21 | 52.42525 | 5.00355 | 6760 ft | 325 kts | 273° |
| 2026-05-07 09:22 | 52.42608 | 4.96670 | 6382 ft | 323 kts | 273° |
| 2026-05-07 09:22 | 52.42693 | 4.93007 | 5984 ft | 321 kts | 272° |
| 2026-05-07 09:22 | 52.42789 | 4.89385 | 5618 ft | 312 kts | 273° |
| 2026-05-07 09:22 | 52.42870 | 4.85918 | 5330 ft | 296 kts | 272° |
| 2026-05-07 09:23 | 52.42939 | 4.82679 | 5046 ft | 273 kts | 273° |
| 2026-05-07 09:23 | 52.42992 | 4.79607 | 4766 ft | 267 kts | 273° |
| 2026-05-07 09:23 | 52.43037 | 4.76595 | 4475 ft | 263 kts | 273° |
| 2026-05-07 09:23 | 52.43077 | 4.73621 | 4245 ft | 261 kts | 272° |
| 2026-05-07 09:24 | 52.43125 | 4.70649 | 4116 ft | 261 kts | 273° |
| 2026-05-07 09:24 | 52.43163 | 4.67674 | 4068 ft | 261 kts | 272° |
| 2026-05-07 09:24 | 52.43204 | 4.64688 | 4073 ft | 263 kts | 272° |
| 2026-05-07 09:24 | 52.43252 | 4.61685 | 4072 ft | 264 kts | 272° |
| 2026-05-07 09:25 | 52.43303 | 4.58676 | 4075 ft | 264 kts | 272° |
| 2026-05-07 09:25 | 52.42982 | 4.55727 | 4082 ft | 267 kts | 246° |
| 2026-05-07 09:25 | 52.41846 | 4.53345 | 4081 ft | 268 kts | 219° |
| 2026-05-07 09:25 | 52.40314 | 4.51585 | 4083 ft | 270 kts | 213° |
| 2026-05-07 09:26 | 52.38734 | 4.49919 | 4080 ft | 269 kts | 213° |
| 2026-05-07 09:26 | 52.37154 | 4.48274 | 4037 ft | 270 kts | 213° |
| 2026-05-07 09:26 | 52.35593 | 4.46651 | 3779 ft | 268 kts | 212° |
| 2026-05-07 09:26 | 52.34021 | 4.45015 | 3519 ft | 268 kts | 212° |
| 2026-05-07 09:27 | 52.32450 | 4.43374 | 3260 ft | 267 kts | 212° |
| 2026-05-07 09:27 | 52.30885 | 4.41740 | 2997 ft | 266 kts | 213° |
| 2026-05-07 09:27 | 52.27555 | 4.40388 | 2479 ft | 245 kts | 162° |
| 2026-05-07 09:28 | 52.25997 | 4.41391 | 2215 ft | 237 kts | 154° |
| 2026-05-07 09:28 | 52.24523 | 4.42539 | 2036 ft | 232 kts | 153° |
| 2026-05-07 09:28 | 52.23086 | 4.43664 | 1989 ft | 223 kts | 153° |
| 2026-05-07 09:28 | 52.21777 | 4.44840 | 1998 ft | 208 kts | 136° |
| 2026-05-07 09:29 | 52.21066 | 4.46749 | 2002 ft | 195 kts | 98° |
| 2026-05-07 09:29 | 52.21018 | 4.48918 | 2003 ft | 191 kts | 85° |
| 2026-05-07 09:29 | 52.21117 | 4.51069 | 2002 ft | 190 kts | 83° |
| 2026-05-07 09:29 | 52.21243 | 4.53178 | 2032 ft | 184 kts | 80° |
| 2026-05-07 09:30 | 52.21705 | 4.55082 | 2003 ft | 181 kts | 57° |
| 2026-05-07 09:30 | 52.22377 | 4.56807 | 2002 ft | 180 kts | 57° |
| 2026-05-07 09:30 | 52.23033 | 4.58496 | 1986 ft | 171 kts | 57° |
| 2026-05-07 09:30 | 52.23663 | 4.60124 | 1910 ft | 169 kts | 57° |
| 2026-05-07 09:31 | 52.24291 | 4.61746 | 1726 ft | 168 kts | 56° |
| 2026-05-07 09:31 | 52.24911 | 4.63350 | 1535 ft | 166 kts | 56° |
| 2026-05-07 09:31 | 52.25506 | 4.64892 | 1284 ft | 151 kts | 56° |
| 2026-05-07 09:31 | 52.26032 | 4.66255 | 1089 ft | 137 kts | 56° |
| 2026-05-07 09:32 | 52.26531 | 4.67549 | 901 ft | 133 kts | 57° |
| 2026-05-07 09:32 | 52.27019 | 4.68814 | 733 ft | 130 kts | 56° |
| 2026-05-07 09:32 | 52.27502 | 4.70065 | 570 ft | 129 kts | 56° |
| 2026-05-07 09:32 | 52.27978 | 4.71299 | 382 ft | 128 kts | 56° |
| 2026-05-07 09:33 | 52.28450 | 4.72527 | 204 ft | 128 kts | 57° |
| 2026-05-07 09:33 | 52.28919 | 4.73755 | 30 ft | 127 kts | 57° |
| 2026-05-07 09:33 | 52.29349 | 4.74856 | -2 ft | 94 kts | 58° |
| 2026-05-07 09:33 | 52.29627 | 4.75576 | -1 ft | 63 kts | 57° |
| 2026-05-07 09:34 | 52.29837 | 4.76120 | -4 ft | 51 kts | 58° |
| 2026-05-07 09:34 | 52.29971 | 4.76462 | -2 ft | 25 kts | 51° |
| 2026-05-07 09:34 | 52.30103 | 4.76609 | -1 ft | 23 kts | 22° |
| 2026-05-07 09:34 | 52.30172 | 4.76663 | -1 ft | 1 kts | 27° |
| 2026-05-07 09:35 | 52.30174 | 4.76664 | -1 ft | 0 kts | 27° |
| 2026-05-07 09:35 | 52.30188 | 4.76676 | -1 ft | 7 kts | 27° |
| 2026-05-07 09:35 | 52.30252 | 4.76726 | -1 ft | 12 kts | 23° |
| 2026-05-07 09:36 | 52.30331 | 4.76719 | -1 ft | 12 kts | 321° |
| 2026-05-07 09:36 | 52.30331 | 4.76601 | -1 ft | 11 kts | 250° |
| 2026-05-07 09:36 | 52.30361 | 4.76509 | -1 ft | 9 kts | 323° |
| 2026-05-07 09:36 | 52.30414 | 4.76456 | -1 ft | 8 kts | 330° |
| 2026-05-07 09:37 | 52.30462 | 4.76411 | -1 ft | 8 kts | 329° |
| 2026-05-07 09:37 | 52.30496 | 4.76353 | -1 ft | 6 kts | 274° |
| 2026-05-07 09:37 | 52.30479 | 4.76298 | -1 ft | 3 kts | 237° |
| 2026-05-07 09:37 | 52.30478 | 4.76296 | -1 ft | 0 kts | 237° |